Memphis, TN

11:58 AM CST on February 27, 2015 (GMT -0600)
Sea Isle | Change Station
CLOSE
Current Station
Personal Weather Station
Location: Memphis, TN
Elevation: 276 ft
Nearby Weather Stations

Elev 276 ft 35.09 °N, 89.89 °W | Updated 14 seconds ago

Scattered Clouds
Scattered Clouds
34.7 °F
Feels Like 29 °F
N
6.0
Wind Variable Wind from South
Gusts 8.3 mph

Today
High -- | Low -- °F
--% Chance of Precip.
Yesterday
High -- | Low -- °F
Precip. -- in
6:32 AM 5:53 PM
Waxing Gibbous, 70% visible
Pressure 30.58 in
Visibility 10.0 miles
Clouds Scattered Clouds 2900 ft
Windchill 29 °F
Dew Point 18 °F
Humidity 49%
Rainfall 0.00 in
Snow Depth Not available.
UV 5 out of 12
Pollen 4.00 out of 12
Air Quality Not available.
Flu Activity Not available.
METAR KMEM 271754Z 03007KT 10SM SCT029 M01/M10 A3057 RMK AO2 SLP354 T10111100 11011 21061 58004

More Conditions Fewer Conditions

Pressure 30.58 in
Visibility 10.0 miles
Clouds Scattered Clouds 2900 ft
Windchill 29 °F
Dew Point 18 °F
Humidity 49%
Rainfall 0.00 in
Snow Depth Not available.
UV 5 out of 12
Pollen 4.00 out of 12
Air Quality Not available.
Flu Activity Not available.
METAR KMEM 271754Z 03007KT 10SM SCT029 M01/M10 A3057 RMK AO2 SLP354 T10111100 11011 21061 58004

More Conditions Fewer Conditions

10-Day Weather Forecast

Almanac

Astronomy

Feb. 27, 2015 Rise Set
Actual Time
Civil Twilight
Nautical Twilight
Astronomical Twilight
Moon
Length of Visible Light
Length of Day
Tomorrow will be .
, % of the Moon is Illuminated

Today's Extremes

State Highs State Lows

Community

WunderPhotos

Upload Photos

1,800,758 photos uploaded!

WunderBlogs® & News

Nearby

Air Quality

  Air Quality AQ Index Pollutant
Not available.

Snow Depth

Station Depth Elevation

Earthquake Activity

City Distance Mag. Time & Date
Minimum magnitude displayed is 2.5.

Coastal Water Temperatures

Place Temperature

Nearby Weather Stations